createdAt,value
2022-09-13T00:01:39.161Z,77.53
2022-09-13T00:04:08.442Z,77.65
2022-09-13T00:06:37.429Z,77.89
2022-09-13T00:09:06.639Z,78.29
2022-09-13T00:11:35.622Z,78.23
2022-09-13T00:14:04.732Z,78.22
2022-09-13T00:16:33.733Z,78.30
2022-09-13T00:19:04.428Z,78.45
2022-09-13T00:21:33.456Z,77.93
2022-09-13T00:24:02.643Z,78.13
2022-09-13T00:26:31.542Z,77.04
2022-09-13T00:29:01.159Z,78.07
2022-09-13T00:31:30.458Z,77.84
2022-09-13T00:34:00.910Z,80.25
2022-09-13T00:36:31.697Z,81.71
2022-09-13T00:39:01.781Z,85.08
2022-09-13T00:41:31.159Z,88.18
2022-09-13T00:44:01.993Z,89.26
2022-09-13T00:46:38.221Z,90.58
2022-09-13T00:49:15.125Z,94.07
2022-09-13T00:51:51.336Z,94.18
2022-09-13T00:54:23.552Z,95.09
2022-09-13T00:56:57.448Z,98.02
2022-09-13T00:59:31.074Z,97.04
2022-09-13T01:02:03.573Z,98.28
2022-09-13T01:04:35.860Z,100.00
2022-09-13T01:07:09.534Z,100.00
2022-09-13T01:09:41.422Z,100.00
2022-09-13T01:12:18.640Z,100.00
2022-09-13T01:14:49.294Z,100.00
2022-09-13T01:17:18.409Z,100.00
2022-09-13T01:19:47.492Z,100.00
2022-09-13T01:23:01.566Z,100.00
2022-09-13T01:26:02.782Z,100.00
2022-09-13T01:28:59.591Z,100.00
2022-09-13T01:31:36.669Z,100.00
2022-09-13T01:34:17.623Z,100.00
2022-09-13T01:37:10.155Z,100.00
2022-09-13T01:39:55.704Z,100.00
2022-09-13T01:42:36.678Z,100.00
2022-09-13T01:45:18.675Z,100.00
2022-09-13T01:47:56.249Z,100.00
2022-09-13T01:50:38.498Z,100.00
2022-09-13T01:53:17.228Z,100.00
2022-09-13T01:55:51.804Z,100.00
2022-09-13T01:58:25.490Z,100.00
2022-09-13T02:01:05.275Z,100.00
2022-09-13T02:03:44.258Z,100.00
2022-09-13T02:06:16.699Z,100.00
2022-09-13T02:08:49.765Z,100.00
2022-09-13T02:11:21.051Z,100.00
2022-09-13T02:13:57.588Z,100.00
2022-09-13T02:16:33.466Z,100.00
2022-09-13T02:19:10.319Z,100.00
2022-09-13T02:21:43.834Z,100.00
2022-09-13T02:24:16.748Z,100.00
2022-09-13T02:26:49.207Z,100.00
2022-09-13T02:29:22.347Z,100.00
2022-09-13T02:31:56.856Z,100.00
2022-09-13T02:34:33.717Z,100.00
2022-09-13T02:37:05.745Z,100.00
2022-09-13T02:39:38.747Z,100.00
2022-09-13T02:42:15.292Z,100.00
2022-09-13T02:44:47.065Z,100.00
2022-09-13T02:47:31.329Z,100.00
2022-09-13T02:50:12.494Z,100.00
2022-09-13T02:52:52.440Z,100.00
2022-09-13T02:55:26.662Z,100.00
2022-09-13T02:58:03.600Z,100.00
2022-09-13T03:00:33.198Z,100.00
2022-09-13T03:03:06.204Z,100.00
2022-09-13T03:05:37.273Z,100.00
2022-09-13T03:08:10.718Z,100.00
2022-09-13T03:10:52.426Z,100.00
2022-09-13T03:13:54.531Z,100.00
2022-09-13T03:16:37.818Z,100.00
2022-09-13T03:19:29.795Z,100.00
2022-09-13T03:22:16.192Z,100.00
2022-09-13T03:24:55.126Z,100.00
2022-09-13T03:27:36.322Z,100.00
2022-09-13T03:30:08.498Z,100.00
2022-09-13T03:32:44.598Z,100.00
2022-09-13T03:35:23.769Z,100.00
2022-09-13T03:38:00.982Z,100.00
2022-09-13T03:40:39.367Z,100.00
2022-09-13T03:43:14.655Z,100.00
2022-09-13T03:45:48.124Z,100.00
2022-09-13T03:48:18.934Z,100.00
2022-09-13T03:50:49.924Z,100.00
2022-09-13T03:53:25.312Z,100.00
2022-09-13T03:55:54.864Z,100.00
2022-09-13T03:58:26.332Z,100.00
2022-09-13T04:00:55.603Z,100.00
2022-09-13T04:03:24.609Z,100.00
2022-09-13T04:05:53.511Z,100.00
2022-09-13T04:08:23.853Z,100.00
2022-09-13T04:10:53.126Z,100.00
2022-09-13T04:13:22.487Z,100.00
2022-09-13T04:15:51.651Z,100.00
2022-09-13T04:18:20.696Z,100.00
2022-09-13T04:20:56.142Z,100.00
2022-09-13T04:23:28.357Z,100.00
2022-09-13T04:26:01.579Z,100.00
2022-09-13T04:28:30.829Z,100.00
2022-09-13T04:31:00.125Z,100.00
2022-09-13T04:33:29.195Z,100.00
2022-09-13T04:36:00.502Z,100.00
2022-09-13T04:38:32.990Z,100.00
2022-09-13T04:41:02.194Z,100.00
2022-09-13T04:43:31.501Z,100.00
2022-09-13T04:46:02.161Z,100.00
2022-09-13T04:48:31.302Z,100.00
2022-09-13T04:51:04.541Z,100.00
2022-09-13T04:53:35.935Z,100.00
2022-09-13T04:56:06.361Z,100.00
2022-09-13T04:58:35.511Z,100.00
2022-09-13T05:01:08.405Z,100.00
2022-09-13T05:03:38.443Z,100.00
2022-09-13T05:06:08.706Z,100.00
2022-09-13T05:08:39.982Z,100.00
2022-09-13T05:11:09.528Z,100.00
2022-09-13T05:13:39.511Z,100.00
2022-09-13T05:16:09.818Z,100.00
2022-09-13T05:18:43.173Z,100.00
2022-09-13T05:21:17.252Z,100.00
2022-09-13T05:23:49.617Z,100.00
2022-09-13T05:26:19.611Z,100.00
2022-09-13T05:28:49.213Z,100.00
2022-09-13T05:31:21.525Z,100.00
2022-09-13T05:33:56.165Z,100.00
2022-09-13T05:36:28.581Z,100.00
2022-09-13T05:39:26.355Z,100.00
2022-09-13T05:41:52.220Z,100.00
2022-09-13T05:44:23.460Z,100.00
2022-09-13T05:46:53.389Z,100.00
2022-09-13T05:49:23.487Z,100.00
2022-09-13T05:51:52.688Z,100.00
2022-09-13T05:54:23.017Z,100.00
2022-09-13T05:56:54.201Z,100.00
2022-09-13T05:59:23.126Z,100.00
2022-09-13T06:01:52.420Z,100.00
2022-09-13T06:04:21.434Z,100.00
2022-09-13T06:06:50.466Z,100.00
2022-09-13T06:09:19.463Z,100.00
2022-09-13T06:11:49.826Z,100.00
2022-09-13T06:14:18.812Z,100.00
2022-09-13T06:16:47.809Z,100.00
2022-09-13T06:19:16.769Z,100.00
2022-09-13T06:21:45.791Z,100.00
2022-09-13T06:24:14.858Z,100.00
2022-09-13T06:26:43.959Z,100.00
2022-09-13T06:29:14.364Z,100.00
2022-09-13T06:31:45.173Z,100.00
2022-09-13T06:34:16.033Z,100.00
2022-09-13T06:36:45.236Z,100.00
2022-09-13T06:39:14.280Z,100.00
2022-09-13T06:41:43.507Z,100.00
2022-09-13T06:44:13.987Z,100.00
2022-09-13T06:46:43.080Z,100.00
2022-09-13T06:49:12.361Z,100.00
2022-09-13T06:51:41.577Z,100.00
2022-09-13T06:54:10.604Z,100.00
2022-09-13T06:56:40.265Z,100.00
2022-09-13T06:59:11.226Z,100.00
2022-09-13T07:01:44.670Z,100.00
2022-09-13T07:04:16.287Z,100.00
2022-09-13T07:06:47.611Z,100.00
2022-09-13T07:09:18.818Z,100.00
2022-09-13T07:11:49.219Z,100.00
2022-09-13T07:14:20.455Z,100.00
2022-09-13T07:16:51.719Z,100.00
2022-09-13T07:19:23.044Z,100.00
2022-09-13T07:21:52.462Z,100.00
2022-09-13T07:24:22.892Z,100.00
2022-09-13T07:26:52.316Z,100.00
2022-09-13T07:29:23.869Z,100.00
2022-09-13T07:31:56.663Z,100.00
2022-09-13T07:34:27.363Z,100.00
2022-09-13T07:36:56.447Z,100.00
2022-09-13T07:39:25.529Z,100.00
2022-09-13T07:41:54.591Z,100.00
2022-09-13T07:44:23.730Z,100.00
2022-09-13T07:46:54.079Z,100.00
2022-09-13T07:49:23.282Z,100.00
2022-09-13T07:51:53.058Z,100.00
2022-09-13T07:54:22.390Z,100.00
2022-09-13T07:56:51.684Z,100.00
2022-09-13T07:59:20.998Z,100.00
2022-09-13T08:01:52.627Z,100.00
2022-09-13T08:04:26.864Z,100.00
2022-09-13T08:06:55.869Z,99.92
2022-09-13T08:09:24.798Z,99.90
2022-09-13T08:11:54.356Z,100.00
2022-09-13T08:14:25.053Z,96.76
2022-09-13T08:16:57.514Z,97.75
2022-09-13T08:19:28.042Z,96.14
2022-09-13T08:21:57.035Z,95.11
2022-09-13T08:24:26.705Z,95.05
2022-09-13T08:26:56.947Z,94.94
2022-09-13T08:29:26.392Z,95.62
2022-09-13T08:31:55.382Z,90.04
2022-09-13T08:34:24.490Z,92.29
2022-09-13T08:36:54.721Z,86.68
2022-09-13T08:39:23.734Z,80.64
2022-09-13T08:42:12.574Z,78.79
2022-09-13T08:44:46.580Z,73.62
2022-09-13T08:47:41.726Z,72.80
2022-09-13T08:50:19.355Z,71.88
2022-09-13T08:53:01.405Z,71.66
2022-09-13T08:55:41.498Z,73.77
2022-09-13T08:58:31.200Z,69.23
2022-09-13T09:01:08.579Z,68.30
2022-09-13T09:03:47.311Z,70.97
2022-09-13T09:06:17.959Z,69.44
2022-09-13T09:08:54.352Z,66.29
2022-09-13T09:11:32.526Z,67.78
2022-09-13T09:14:08.237Z,68.73
2022-09-13T09:16:42.256Z,63.07
2022-09-13T09:19:21.339Z,61.96
2022-09-13T09:21:52.123Z,60.50
2022-09-13T09:24:25.534Z,60.98
2022-09-13T09:26:58.296Z,61.51
2022-09-13T09:29:32.603Z,58.68
2022-09-13T09:32:16.062Z,59.65
2022-09-13T09:34:56.379Z,60.19
2022-09-13T09:37:27.070Z,60.92
2022-09-13T09:40:04.398Z,59.60
2022-09-13T09:42:41.723Z,56.56
2022-09-13T09:45:26.490Z,54.73
2022-09-13T09:47:57.455Z,56.85
2022-09-13T09:50:29.596Z,54.89
2022-09-13T09:53:04.003Z,54.68
2022-09-13T09:55:41.142Z,54.69
2022-09-13T09:58:11.270Z,55.24
2022-09-13T10:00:53.136Z,54.31
2022-09-13T10:03:26.303Z,52.56
2022-09-13T10:06:06.681Z,53.75
2022-09-13T10:08:38.118Z,55.66
2022-09-13T10:11:09.476Z,53.98
2022-09-13T10:13:38.784Z,54.89
2022-09-13T10:16:24.744Z,51.52
2022-09-13T10:18:54.183Z,50.70
2022-09-13T10:21:25.930Z,51.45
2022-09-13T10:24:19.185Z,53.66
2022-09-13T10:26:49.556Z,57.22
2022-09-13T10:29:19.450Z,56.16
2022-09-13T10:31:53.620Z,55.60
2022-09-13T10:34:26.500Z,54.20
2022-09-13T10:36:59.232Z,52.68
2022-09-13T10:39:31.295Z,53.91
2022-09-13T10:42:05.030Z,54.13
2022-09-13T10:44:39.840Z,55.41
2022-09-13T10:47:14.919Z,54.49
2022-09-13T10:49:47.906Z,52.42
2022-09-13T10:52:35.334Z,54.94
2022-09-13T10:55:27.808Z,54.38
2022-09-13T10:58:14.558Z,54.42
2022-09-13T11:01:02.812Z,56.21
2022-09-13T11:03:43.347Z,58.10
2022-09-13T11:06:21.456Z,54.01
2022-09-13T11:09:02.020Z,56.50
2022-09-13T11:11:39.331Z,56.83
2022-09-13T11:14:23.469Z,51.60
2022-09-13T11:17:04.381Z,51.18
2022-09-13T11:20:07.137Z,50.39
2022-09-13T11:23:07.329Z,50.35
2022-09-13T11:26:02.483Z,49.93
2022-09-13T11:28:45.103Z,52.79
2022-09-13T11:31:36.100Z,54.07
2022-09-13T11:34:19.700Z,50.83
2022-09-13T11:37:05.328Z,49.98
2022-09-13T11:39:39.255Z,47.48
2022-09-13T11:42:29.029Z,48.83
2022-09-13T11:45:21.805Z,50.68
2022-09-13T11:48:04.501Z,49.88
2022-09-13T11:50:39.909Z,51.74
2022-09-13T11:53:30.202Z,52.48
2022-09-13T11:56:03.417Z,48.72
2022-09-13T11:58:36.925Z,49.70
2022-09-13T12:01:10.775Z,51.52
2022-09-13T12:03:50.784Z,52.03
2022-09-13T12:06:24.320Z,53.10
2022-09-13T12:08:57.295Z,55.01
2022-09-13T12:11:30.522Z,52.08
2022-09-13T12:14:02.428Z,49.59
2022-09-13T12:16:36.636Z,47.44
2022-09-13T12:19:19.547Z,46.97
2022-09-13T12:21:50.915Z,48.91
2022-09-13T12:24:23.096Z,50.61
2022-09-13T12:26:57.435Z,52.61
2022-09-13T12:29:32.334Z,51.16
2022-09-13T12:32:04.571Z,50.53
2022-09-13T12:34:52.134Z,49.67
2022-09-13T12:37:45.997Z,47.00
2022-09-13T12:40:35.675Z,46.37
2022-09-13T12:43:21.806Z,47.86
2022-09-13T12:46:24.663Z,48.90
2022-09-13T12:49:22.298Z,48.64
2022-09-13T12:52:12.507Z,45.97
2022-09-13T12:55:42.888Z,47.88
2022-09-13T12:58:29.450Z,49.67
2022-09-13T13:01:10.930Z,47.65
2022-09-13T13:03:52.744Z,45.38
2022-09-13T13:06:30.364Z,46.35
2022-09-13T13:09:04.439Z,45.55
2022-09-13T13:11:47.432Z,46.39
2022-09-13T13:14:44.471Z,48.31
2022-09-13T13:17:40.815Z,52.32
2022-09-13T13:20:41.777Z,53.48
2022-09-13T13:23:20.533Z,56.05
2022-09-13T13:26:08.626Z,53.11
2022-09-13T13:29:05.863Z,50.87
2022-09-13T13:31:38.319Z,51.48
2022-09-13T13:34:43.133Z,52.42
2022-09-13T13:37:32.627Z,53.14
2022-09-13T13:40:29.594Z,55.27
2022-09-13T13:43:32.220Z,57.65
2022-09-13T13:46:27.154Z,58.76
2022-09-13T13:48:56.458Z,58.18
2022-09-13T13:51:29.483Z,58.85
2022-09-13T13:54:06.070Z,56.80
2022-09-13T13:56:47.905Z,56.50
2022-09-13T13:59:26.636Z,55.93
2022-09-13T14:02:01.681Z,56.81
2022-09-13T14:04:59.294Z,57.12
2022-09-13T14:08:00.105Z,54.20
2022-09-13T14:10:39.959Z,54.21
2022-09-13T14:13:31.471Z,53.87
2022-09-13T14:16:10.436Z,54.02
2022-09-13T14:18:50.272Z,53.51
2022-09-13T14:21:22.064Z,52.42
2022-09-13T14:23:51.825Z,51.73
2022-09-13T14:26:22.193Z,55.23
2022-09-13T14:28:51.174Z,56.40
2022-09-13T14:31:21.661Z,54.06
2022-09-13T14:33:50.649Z,54.20
2022-09-13T14:36:22.531Z,56.31
2022-09-13T14:38:55.540Z,56.26
2022-09-13T14:41:32.324Z,56.20
2022-09-13T14:44:23.728Z,54.19
2022-09-13T14:47:05.981Z,54.23
2022-09-13T14:49:41.043Z,54.12
2022-09-13T14:52:16.928Z,55.87
2022-09-13T14:54:51.155Z,56.07
2022-09-13T14:57:26.373Z,55.18
2022-09-13T14:59:59.767Z,54.55
2022-09-13T15:02:36.614Z,52.99
2022-09-13T15:05:12.526Z,54.37
2022-09-13T15:07:42.743Z,52.63
2022-09-13T15:10:23.674Z,51.76
2022-09-13T15:12:55.869Z,52.88
2022-09-13T15:15:32.643Z,52.25
2022-09-13T15:18:05.247Z,51.91
2022-09-13T15:20:49.826Z,53.98
2022-09-13T15:23:21.735Z,53.05
2022-09-13T15:25:54.545Z,53.88
2022-09-13T15:28:29.367Z,53.14
2022-09-13T15:31:01.183Z,52.39
2022-09-13T15:33:34.162Z,52.00
2022-09-13T15:36:28.399Z,53.24
2022-09-13T15:39:01.392Z,54.71
2022-09-13T15:41:32.703Z,55.74
2022-09-13T15:44:03.297Z,57.86
2022-09-13T15:46:33.218Z,58.04
2022-09-13T15:49:06.903Z,58.12
2022-09-13T15:51:39.037Z,58.60
2022-09-13T15:54:13.719Z,59.51
2022-09-13T15:56:44.920Z,58.43
2022-09-13T15:59:15.368Z,58.86
2022-09-13T16:01:45.458Z,59.10
2022-09-13T16:04:16.322Z,59.22
2022-09-13T16:06:46.241Z,58.89
2022-09-13T16:09:19.686Z,59.93
2022-09-13T16:11:50.232Z,59.04
2022-09-13T16:14:20.484Z,57.35
2022-09-13T16:16:49.838Z,57.85
2022-09-13T16:19:27.512Z,58.37
2022-09-13T16:21:56.558Z,58.38
2022-09-13T16:24:25.945Z,58.63
2022-09-13T16:26:55.087Z,59.16
2022-09-13T16:29:24.078Z,60.37
2022-09-13T16:31:53.154Z,59.80
2022-09-13T16:34:23.524Z,61.57
2022-09-13T16:36:52.427Z,60.26
2022-09-13T16:39:21.426Z,60.05
2022-09-13T16:41:50.713Z,60.23
2022-09-13T16:44:19.716Z,59.62
2022-09-13T16:46:48.692Z,60.25
2022-09-13T16:49:17.748Z,58.41
2022-09-13T16:51:48.126Z,59.79
2022-09-13T16:54:17.416Z,58.93
2022-09-13T16:56:46.343Z,59.58
2022-09-13T16:59:15.694Z,60.10
2022-09-13T17:01:44.752Z,60.21
2022-09-13T17:04:13.774Z,61.20
2022-09-13T17:06:42.810Z,61.66
2022-09-13T17:09:14.004Z,62.39
2022-09-13T17:11:45.471Z,62.78
2022-09-13T17:14:17.638Z,62.28
2022-09-13T17:16:52.323Z,63.35
2022-09-13T17:19:23.531Z,63.53
2022-09-13T17:21:57.634Z,64.25
2022-09-13T17:24:30.723Z,64.50
2022-09-13T17:27:02.855Z,66.09
2022-09-13T17:29:33.241Z,66.08
2022-09-13T17:32:04.762Z,67.73
2022-09-13T17:34:35.467Z,68.16
2022-09-13T17:37:06.875Z,67.71
2022-09-13T17:39:38.650Z,68.17
2022-09-13T17:42:08.883Z,68.22
2022-09-13T17:44:39.703Z,68.16
2022-09-13T17:47:10.014Z,69.41
2022-09-13T17:49:40.117Z,69.01
2022-09-13T17:52:10.538Z,70.53
2022-09-13T17:54:42.016Z,69.11
2022-09-13T17:57:15.705Z,69.77
2022-09-13T17:59:47.661Z,70.75
2022-09-13T18:02:18.557Z,71.01
2022-09-13T18:04:48.721Z,70.41
2022-09-13T18:07:18.857Z,70.90
2022-09-13T18:09:50.557Z,69.89
2022-09-13T18:12:21.756Z,71.01
2022-09-13T18:14:51.956Z,70.44
2022-09-13T18:17:22.102Z,70.74
2022-09-13T18:19:52.312Z,70.61
2022-09-13T18:22:22.794Z,70.04
2022-09-13T18:24:54.064Z,69.81
2022-09-13T18:27:23.868Z,70.45
2022-09-13T18:29:53.566Z,70.95
2022-09-13T18:32:23.261Z,69.63
2022-09-13T18:34:53.176Z,70.52
2022-09-13T18:37:23.712Z,70.39
2022-09-13T18:39:55.797Z,70.32
2022-09-13T18:42:29.248Z,70.86
2022-09-13T18:45:03.193Z,71.05
2022-09-13T18:47:33.736Z,71.83
2022-09-13T18:50:04.219Z,71.63
2022-09-13T18:52:34.193Z,71.92
2022-09-13T18:55:05.955Z,71.70
2022-09-13T18:57:35.825Z,71.82
2022-09-13T19:00:06.701Z,71.92
2022-09-13T19:02:51.982Z,73.23
2022-09-13T19:05:28.614Z,72.83
2022-09-13T19:07:58.807Z,72.73
2022-09-13T19:10:32.849Z,72.52
2022-09-13T19:13:03.006Z,72.55
2022-09-13T19:15:33.647Z,73.65
2022-09-13T19:18:02.965Z,72.42
2022-09-13T19:20:32.646Z,72.46
2022-09-13T19:23:02.931Z,73.61
2022-09-13T19:25:36.797Z,74.29
2022-09-13T19:28:06.926Z,74.76
2022-09-13T19:30:36.886Z,74.54
2022-09-13T19:33:07.359Z,74.01
2022-09-13T19:35:37.289Z,75.29
2022-09-13T19:38:07.188Z,74.86
2022-09-13T19:40:39.442Z,74.59
2022-09-13T19:43:09.535Z,73.43
2022-09-13T19:45:38.754Z,73.53
2022-09-13T19:50:56.630Z,74.07
2022-09-13T19:53:40.852Z,74.62
2022-09-13T19:56:17.378Z,73.28
2022-09-13T19:58:46.829Z,74.20
2022-09-13T20:01:17.845Z,74.01
2022-09-13T20:03:53.405Z,73.87
2022-09-13T20:06:24.113Z,75.11
2022-09-13T20:08:58.097Z,74.50
2022-09-13T20:11:29.149Z,75.41
2022-09-13T20:13:59.442Z,75.92
2022-09-13T20:16:31.088Z,75.20
2022-09-13T20:19:00.657Z,76.04
2022-09-13T20:21:31.876Z,76.46
2022-09-13T20:24:03.921Z,77.21
2022-09-13T20:26:35.798Z,77.53
2022-09-13T20:29:06.848Z,77.99
2022-09-13T20:31:37.594Z,78.23
2022-09-13T20:34:08.431Z,77.57
2022-09-13T20:36:38.586Z,77.93
2022-09-13T20:39:08.039Z,79.52
2022-09-13T20:41:38.526Z,79.51
2022-09-13T20:44:07.525Z,80.43
2022-09-13T20:46:37.595Z,80.73
2022-09-13T20:49:07.969Z,80.83
2022-09-13T20:51:37.426Z,81.63
2022-09-13T20:54:07.676Z,81.30
2022-09-13T20:56:38.085Z,81.47
2022-09-13T20:59:07.147Z,83.08
2022-09-13T21:01:36.509Z,82.88
2022-09-13T21:04:05.850Z,83.39
2022-09-13T21:06:39.708Z,82.62
2022-09-13T21:09:07.670Z,82.40
2022-09-13T21:11:38.553Z,83.15
2022-09-13T21:14:09.432Z,83.33
2022-09-13T21:16:40.726Z,84.42
2022-09-13T21:19:11.114Z,85.43
2022-09-13T21:21:42.373Z,85.60
2022-09-13T21:24:13.781Z,84.52
2022-09-13T21:26:44.183Z,85.23
2022-09-13T21:29:13.608Z,85.44
2022-09-13T21:31:42.734Z,85.20
2022-09-13T21:34:16.079Z,85.50
2022-09-13T21:36:46.608Z,85.23
2022-09-13T21:39:16.788Z,84.63
2022-09-13T21:41:47.523Z,84.91
2022-09-13T21:44:17.648Z,85.36
2022-09-13T21:46:46.806Z,85.97
2022-09-13T21:49:15.781Z,85.60
2022-09-13T21:51:46.681Z,86.27
2022-09-13T21:54:18.106Z,86.55
2022-09-13T21:56:52.162Z,86.76
2022-09-13T21:59:22.751Z,86.18
2022-09-13T22:01:54.120Z,87.11
2022-09-13T22:04:27.350Z,87.73
2022-09-13T22:06:57.189Z,88.56
2022-09-13T22:09:27.972Z,88.55
2022-09-13T22:11:58.407Z,89.34
2022-09-13T22:14:27.461Z,89.99
2022-09-13T22:16:56.687Z,89.27
2022-09-13T22:19:27.393Z,89.83
2022-09-13T22:21:59.165Z,90.02
2022-09-13T22:24:31.930Z,91.31
2022-09-13T22:27:04.492Z,92.17
2022-09-13T22:29:33.473Z,91.87
2022-09-13T22:32:02.557Z,92.33
2022-09-13T22:34:34.808Z,92.61
2022-09-13T22:37:03.725Z,92.44
2022-09-13T22:39:32.761Z,93.44
2022-09-13T22:42:03.410Z,93.17
2022-09-13T22:44:32.329Z,93.92
2022-09-13T22:47:01.369Z,94.40
2022-09-13T22:49:30.318Z,94.15
2022-09-13T22:51:59.384Z,94.58
2022-09-13T22:54:28.530Z,94.92
2022-09-13T22:56:57.724Z,95.28
2022-09-13T22:59:28.612Z,95.65
2022-09-13T23:01:57.529Z,95.72
2022-09-13T23:04:26.482Z,95.89
2022-09-13T23:06:55.376Z,95.96
2022-09-13T23:09:24.336Z,96.43
2022-09-13T23:11:53.286Z,96.79
2022-09-13T23:14:22.279Z,97.50
2022-09-13T23:16:54.102Z,98.14
2022-09-13T23:19:25.618Z,98.30
2022-09-13T23:21:54.977Z,99.03
2022-09-13T23:24:24.733Z,98.64
2022-09-13T23:26:56.636Z,99.82
2022-09-13T23:29:25.633Z,99.90
2022-09-13T23:31:56.084Z,99.18
2022-09-13T23:34:25.405Z,99.64
2022-09-13T23:36:54.979Z,100.00
2022-09-13T23:39:23.920Z,100.00
2022-09-13T23:41:53.081Z,100.00
2022-09-13T23:44:22.230Z,99.88
2022-09-13T23:46:51.786Z,100.00
2022-09-13T23:49:22.493Z,100.00
2022-09-13T23:51:51.477Z,100.00
2022-09-13T23:54:20.401Z,100.00
2022-09-13T23:56:49.359Z,100.00
2022-09-13T23:59:18.464Z,100.00
